KBLM/BLM METAR and TAF weather

Enter ICAO airport designator
Station Type Date Time Source
KBLM METAR 2020/04/06 09:56 UTC NOAA

KBLM 060956Z AUTO 04005KT 10SM OVC080 10/08 A3001 RMK AO2 RAE22 SLP164 P0000 T01000083


Station Type Date Time Source
KBLM Decoded METAR 2020/04/06 09:56 UTC NOAA

Belmar-Farmingdale, NJ, United States (KBLM) 40-11N 074-08W
Apr 06, 2020 - 05:56 AM EDT / 2020.04.06 0956 UTC
Wind: from the NE (040 degrees) at 6 MPH (5 KT):0
Visibility: 10 mile(s):0
Sky conditions: overcast
Precipitation last hour: A trace
Temperature: 50.0 F (10.0 C)
Dew Point: 46.9 F (8.3 C)
Relative Humidity: 89%
Pressure (altimeter): 30.01 in. Hg (1016 hPa)
ob: KBLM 060956Z AUTO 04005KT 10SM OVC080 10/08 A3001 RMK AO2 RAE22 SLP164 P0000 T01000083
cycle: 10

Station Type Date Time Source
KBLM TAF UTC NOAA

Error!

Example: see airport list